Bookmark and Share
Track history (hours):
 

Sea-land Champion

More information available from US FCC via Universal Licensing System and Coast Guard Vessel Documentation Center.

Last reported at 2013-May-07 06:33 UTC. Time now 2014-Apr-21 04:53 UTC.
Position N 36°09' W 007°49'.
Warning: this ship's position is months out of date.

Length 292 m; draft 13 m.

Type: Ship (hazmat cat A). MMSI: 366196000.

NotesDate/timePositionNaut miles runAvg speedWind from/ knotsBaromVisibWave heightAir tempDewpointWater temp
2013-May-07 06:33N 36°09' W 007°49'3819.1
2013-May-07 04:33N 36°16' W 008°35'1919.0
2013-May-07 03:33N 36°21' W 008°58'4019.0
2013-May-07 01:29N 36°30' W 009°46'1719.0
2013-May-07 00:33N 36°33' W 010°07'3919.5
2013-May-06 22:33N 36°42' W 010°55'1919.3
2013-May-06 21:33N 36°46' W 011°18'1919.5
2013-May-06 20:33N 36°50' W 011°42'1919.3
2013-May-06 19:33N 36°54' W 012°06'1919.2
2013-May-06 18:33N 36°58' W 012°29'1919.3
2013-May-06 17:33N 37°01' W 012°53'1918.9
2013-May-06 16:33N 37°05' W 013°16'52219.4
2013-May-05 13:33N 38°13' W 024°10'1919.3
2013-May-05 12:33N 38°15' W 024°35'2019.8
2013-May-05 11:33N 38°16' W 024°60'2120.5
2013-May-05 10:33N 38°17' W 025°26'2121.0
2013-May-05 09:33N 38°18' W 025°53'2020.3
2013-May-05 08:33N 38°20' W 026°19'2019.7
2013-May-05 07:33N 38°20' W 026°44'2019.5
2013-May-05 06:33N 38°17' W 027°08'3919.5
2013-May-05 04:33N 38°16' W 027°58'2019.5
2013-May-05 03:33N 38°18' W 028°23'2019.6
2013-May-05 02:33N 38°20' W 028°48'1919.5
2013-May-05 01:33N 38°21' W 029°12'2019.5
2013-May-05 00:33N 38°22' W 029°37'2019.9
2013-May-04 23:33N 38°24' W 030°02'2019.5
2013-May-04 22:33N 38°25' W 030°27'2019.8
2013-May-04 21:31N 38°26' W 030°53'31520.3
2013-May-04 06:00N 38°48' W 037°36'10317.2 030 / 301011.010.8 4.014.012.017.0
2013-May-04 00:00N 38°54' W 039°48'   340 / 91014.0 5.4 1.015.015.017.0
2013-May-01 03:23N 40°25' W 069°08'1618.5
2013-May-01 02:33N 40°25' W 069°28'1818.6
2013-May-01 01:33N 40°24' W 069°52'1918.7
2013-May-01 00:33N 40°24' W 070°17'1918.9
2013-Apr-30 23:34N 40°24' W 070°42'1919.1
2013-Apr-30 22:33N 40°25' W 071°07'1919.3
2013-Apr-30 21:33N 40°24' W 071°32'1919.3
2013-Apr-30 20:34N 40°23' W 071°57'1919.1
2013-Apr-30 19:34N 40°22' W 072°22'1919.1
2013-Apr-30 18:34N 40°22' W 072°47'1919.1
2013-Apr-30 17:33N 40°22' W 073°12'1515.2
2013-Apr-30 16:33N 40°24' W 073°32'9 9.4
2013-Apr-30 15:33N 40°26' W 073°44'8 8.1
2013-Apr-30 14:33N 40°29' W 073°54'1010.5
2013-Apr-30 13:33N 40°37' W 074°03'5 5.1
2013-Apr-30 12:34N 40°39' W 074°09'1 1.4
2013-Apr-30 11:33N 40°40' W 074°09'0 0.0
2013-Apr-30 10:32N 40°40' W 074°09'0 0.0
2013-Apr-30 09:31N 40°40' W 074°09'0 0.0
2013-Apr-30 08:31N 40°40' W 074°09'0 0.0
2013-Apr-30 07:28N 40°40' W 074°09'0 0.0
2013-Apr-30 06:31N 40°40' W 074°09'0 0.0
2013-Apr-30 05:31N 40°40' W 074°09'0 0.0
2013-Apr-30 04:31N 40°40' W 074°09'0 0.0
2013-Apr-30 03:31N 40°40' W 074°09'0 0.0
2013-Apr-30 02:31N 40°40' W 074°09'0 0.0
2013-Apr-30 01:31N 40°40' W 074°09'0 0.0
2013-Apr-30 00:31N 40°40' W 074°09'0 0.0
2013-Apr-29 23:31N 40°40' W 074°09'0 0.0
2013-Apr-29 22:31N 40°40' W 074°09'1 1.5
2013-Apr-29 21:33N 40°39' W 074°08'6 5.9
2013-Apr-29 20:33N 40°35' W 074°02'1010.1
2013-Apr-29 19:33N 40°28' W 073°52'7 6.6
2013-Apr-29 18:33N 40°23' W 073°47'9 9.5
2013-Apr-29 17:34N 40°13' W 073°46'1515.3
2013-Apr-29 16:34N 39°58' W 073°43'2221.8
2013-Apr-29 15:34N 39°36' W 073°45'2322.2
2013-Apr-29 14:32N 39°14' W 073°51'  

Dump ship's entire track history

sailing weather and tide predictions

Sea-land Champion — WKAU — position and weather